sensor_id;sensor_type;location;lat;lon;timestamp;temperature;humidity
49489;SHT31;35382;51.484;11.476;2023-12-07T00:01:05;0.63;99.71
49489;SHT31;35382;51.484;11.476;2023-12-07T00:03:30;0.71;99.59
49489;SHT31;35382;51.484;11.476;2023-12-07T00:05:56;0.78;99.42
49489;SHT31;35382;51.484;11.476;2023-12-07T00:08:21;0.74;99.21
49489;SHT31;35382;51.484;11.476;2023-12-07T00:10:46;0.74;99.32
49489;SHT31;35382;51.484;11.476;2023-12-07T00:13:12;0.74;99.25
49489;SHT31;35382;51.484;11.476;2023-12-07T00:15:38;0.74;99.24
49489;SHT31;35382;51.484;11.476;2023-12-07T00:18:03;0.70;99.28
49489;SHT31;35382;51.484;11.476;2023-12-07T00:20:29;0.75;99.19
49489;SHT31;35382;51.484;11.476;2023-12-07T00:22:55;0.81;99.16
49489;SHT31;35382;51.484;11.476;2023-12-07T00:25:21;0.78;98.98
49489;SHT31;35382;51.484;11.476;2023-12-07T00:27:46;0.77;98.95
49489;SHT31;35382;51.484;11.476;2023-12-07T00:30:12;0.77;98.89
49489;SHT31;35382;51.484;11.476;2023-12-07T00:32:38;0.73;98.98
49489;SHT31;35382;51.484;11.476;2023-12-07T00:35:04;0.77;98.95
49489;SHT31;35382;51.484;11.476;2023-12-07T00:37:30;0.70;98.95
49489;SHT31;35382;51.484;11.476;2023-12-07T00:39:56;0.74;99.05
49489;SHT31;35382;51.484;11.476;2023-12-07T00:42:21;0.67;99.18
49489;SHT31;35382;51.484;11.476;2023-12-07T00:44:47;0.74;99.26
49489;SHT31;35382;51.484;11.476;2023-12-07T00:47:12;0.73;99.32
49489;SHT31;35382;51.484;11.476;2023-12-07T00:49:38;0.73;99.35
49489;SHT31;35382;51.484;11.476;2023-12-07T00:52:04;0.71;99.55
49489;SHT31;35382;51.484;11.476;2023-12-07T00:54:29;0.73;99.50
49489;SHT31;35382;51.484;11.476;2023-12-07T00:56:55;0.77;99.39
49489;SHT31;35382;51.484;11.476;2023-12-07T00:59:20;0.83;99.44
49489;SHT31;35382;51.484;11.476;2023-12-07T01:01:45;0.83;99.21
49489;SHT31;35382;51.484;11.476;2023-12-07T01:04:11;0.85;99.22
49489;SHT31;35382;51.484;11.476;2023-12-07T01:06:36;0.88;99.20
49489;SHT31;35382;51.484;11.476;2023-12-07T01:09:02;0.87;99.25
49489;SHT31;35382;51.484;11.476;2023-12-07T01:11:27;0.84;99.26
49489;SHT31;35382;51.484;11.476;2023-12-07T01:13:53;0.89;99.22
49489;SHT31;35382;51.484;11.476;2023-12-07T01:16:18;0.87;99.13
49489;SHT31;35382;51.484;11.476;2023-12-07T01:18:44;0.88;99.20
49489;SHT31;35382;51.484;11.476;2023-12-07T01:21:09;0.85;99.23
49489;SHT31;35382;51.484;11.476;2023-12-07T01:23:35;0.88;99.18
49489;SHT31;35382;51.484;11.476;2023-12-07T01:26:00;0.94;99.24
49489;SHT31;35382;51.484;11.476;2023-12-07T01:28:25;0.91;99.26
49489;SHT31;35382;51.484;11.476;2023-12-07T01:30:51;0.87;99.17
49489;SHT31;35382;51.484;11.476;2023-12-07T01:33:16;0.88;99.26
49489;SHT31;35382;51.484;11.476;2023-12-07T01:35:42;0.92;99.20
49489;SHT31;35382;51.484;11.476;2023-12-07T01:38:07;0.91;99.11
49489;SHT31;35382;51.484;11.476;2023-12-07T01:40:33;0.92;99.05
49489;SHT31;35382;51.484;11.476;2023-12-07T01:42:58;0.91;98.96
49489;SHT31;35382;51.484;11.476;2023-12-07T01:45:24;0.92;98.91
49489;SHT31;35382;51.484;11.476;2023-12-07T01:47:50;0.89;98.93
49489;SHT31;35382;51.484;11.476;2023-12-07T01:50:17;0.95;98.79
49489;SHT31;35382;51.484;11.476;2023-12-07T01:52:47;0.95;98.71
49489;SHT31;35382;51.484;11.476;2023-12-07T01:55:14;1.01;98.55
49489;SHT31;35382;51.484;11.476;2023-12-07T01:57:40;1.04;98.41
49489;SHT31;35382;51.484;11.476;2023-12-07T02:00:07;0.91;98.50
49489;SHT31;35382;51.484;11.476;2023-12-07T02:02:33;0.89;98.65
49489;SHT31;35382;51.484;11.476;2023-12-07T02:05:00;0.95;98.63
49489;SHT31;35382;51.484;11.476;2023-12-07T02:07:27;0.89;98.55
49489;SHT31;35382;51.484;11.476;2023-12-07T02:09:53;0.94;98.42
49489;SHT31;35382;51.484;11.476;2023-12-07T02:12:19;1.07;98.30
49489;SHT31;35382;51.484;11.476;2023-12-07T02:14:45;0.98;98.12
49489;SHT31;35382;51.484;11.476;2023-12-07T02:17:18;1.07;98.06
49489;SHT31;35382;51.484;11.476;2023-12-07T02:22:29;1.07;97.98
49489;SHT31;35382;51.484;11.476;2023-12-07T02:25:05;1.09;97.81
49489;SHT31;35382;51.484;11.476;2023-12-07T02:27:41;1.01;98.01
49489;SHT31;35382;51.484;11.476;2023-12-07T02:30:09;1.07;97.93
49489;SHT31;35382;51.484;11.476;2023-12-07T02:32:36;1.08;97.89
49489;SHT31;35382;51.484;11.476;2023-12-07T02:35:03;1.01;98.10
49489;SHT31;35382;51.484;11.476;2023-12-07T02:37:33;1.07;98.13
49489;SHT31;35382;51.484;11.476;2023-12-07T02:40:00;1.07;98.23
49489;SHT31;35382;51.484;11.476;2023-12-07T02:42:27;1.14;97.86
49489;SHT31;35382;51.484;11.476;2023-12-07T02:44:53;1.08;97.90
49489;SHT31;35382;51.484;11.476;2023-12-07T02:47:18;1.05;98.08
49489;SHT31;35382;51.484;11.476;2023-12-07T02:49:44;1.18;97.75
49489;SHT31;35382;51.484;11.476;2023-12-07T02:52:09;1.08;97.80
49489;SHT31;35382;51.484;11.476;2023-12-07T02:54:35;1.01;98.08
49489;SHT31;35382;51.484;11.476;2023-12-07T02:57:01;1.01;98.16
49489;SHT31;35382;51.484;11.476;2023-12-07T02:59:26;1.04;98.19
49489;SHT31;35382;51.484;11.476;2023-12-07T03:01:51;0.97;98.53
49489;SHT31;35382;51.484;11.476;2023-12-07T03:04:17;0.99;98.64
49489;SHT31;35382;51.484;11.476;2023-12-07T03:06:42;0.97;98.67
49489;SHT31;35382;51.484;11.476;2023-12-07T03:09:07;1.05;98.62
49489;SHT31;35382;51.484;11.476;2023-12-07T03:11:33;1.01;98.49
49489;SHT31;35382;51.484;11.476;2023-12-07T03:13:59;0.97;98.71
49489;SHT31;35382;51.484;11.476;2023-12-07T03:16:24;0.97;99.05
49489;SHT31;35382;51.484;11.476;2023-12-07T03:18:49;0.94;99.23
49489;SHT31;35382;51.484;11.476;2023-12-07T03:21:18;0.94;99.25
49489;SHT31;35382;51.484;11.476;2023-12-07T03:23:43;0.92;99.12
49489;SHT31;35382;51.484;11.476;2023-12-07T03:26:09;0.87;99.12
49489;SHT31;35382;51.484;11.476;2023-12-07T03:28:34;0.89;99.30
49489;SHT31;35382;51.484;11.476;2023-12-07T03:30:59;0.98;99.18
49489;SHT31;35382;51.484;11.476;2023-12-07T03:33:25;0.94;99.13
49489;SHT31;35382;51.484;11.476;2023-12-07T03:35:50;0.94;99.11
49489;SHT31;35382;51.484;11.476;2023-12-07T03:38:16;0.94;99.16
49489;SHT31;35382;51.484;11.476;2023-12-07T03:40:41;1.04;99.27
49489;SHT31;35382;51.484;11.476;2023-12-07T03:43:07;0.95;99.18
49489;SHT31;35382;51.484;11.476;2023-12-07T03:45:32;0.99;99.17
49489;SHT31;35382;51.484;11.476;2023-12-07T03:48:01;0.98;99.15
49489;SHT31;35382;51.484;11.476;2023-12-07T03:50:30;1.01;99.03
49489;SHT31;35382;51.484;11.476;2023-12-07T03:53:05;0.99;99.06
49489;SHT31;35382;51.484;11.476;2023-12-07T03:55:32;0.97;98.97
49489;SHT31;35382;51.484;11.476;2023-12-07T03:58:01;0.99;98.88
49489;SHT31;35382;51.484;11.476;2023-12-07T04:00:34;0.97;98.78
49489;SHT31;35382;51.484;11.476;2023-12-07T04:03:01;0.99;98.82
49489;SHT31;35382;51.484;11.476;2023-12-07T04:05:27;0.99;98.88
49489;SHT31;35382;51.484;11.476;2023-12-07T04:07:53;0.94;99.04
49489;SHT31;35382;51.484;11.476;2023-12-07T04:10:20;0.99;98.89
49489;SHT31;35382;51.484;11.476;2023-12-07T04:12:46;0.99;98.83
49489;SHT31;35382;51.484;11.476;2023-12-07T04:15:12;1.07;98.75
49489;SHT31;35382;51.484;11.476;2023-12-07T04:17:37;1.04;98.57
49489;SHT31;35382;51.484;11.476;2023-12-07T04:20:03;1.02;98.56
49489;SHT31;35382;51.484;11.476;2023-12-07T04:22:28;1.02;98.53
49489;SHT31;35382;51.484;11.476;2023-12-07T04:24:54;1.05;98.50
49489;SHT31;35382;51.484;11.476;2023-12-07T04:27:19;1.05;98.48
49489;SHT31;35382;51.484;11.476;2023-12-07T04:29:45;1.05;98.60
49489;SHT31;35382;51.484;11.476;2023-12-07T04:32:11;1.04;98.67
49489;SHT31;35382;51.484;11.476;2023-12-07T04:34:36;1.01;98.64
49489;SHT31;35382;51.484;11.476;2023-12-07T04:37:02;1.07;98.63
49489;SHT31;35382;51.484;11.476;2023-12-07T04:39:27;0.99;98.66
49489;SHT31;35382;51.484;11.476;2023-12-07T04:41:52;1.04;98.77
49489;SHT31;35382;51.484;11.476;2023-12-07T04:44:18;1.04;98.71
49489;SHT31;35382;51.484;11.476;2023-12-07T04:46:43;1.02;98.68
49489;SHT31;35382;51.484;11.476;2023-12-07T04:49:09;1.12;98.73
49489;SHT31;35382;51.484;11.476;2023-12-07T04:51:34;1.11;98.51
49489;SHT31;35382;51.484;11.476;2023-12-07T04:54:00;1.08;98.47
49489;SHT31;35382;51.484;11.476;2023-12-07T04:56:25;0.98;98.55
49489;SHT31;35382;51.484;11.476;2023-12-07T04:58:51;0.94;98.77
49489;SHT31;35382;51.484;11.476;2023-12-07T05:01:16;1.04;98.89
49489;SHT31;35382;51.484;11.476;2023-12-07T05:03:41;0.98;98.85
49489;SHT31;35382;51.484;11.476;2023-12-07T05:06:07;0.98;98.81
49489;SHT31;35382;51.484;11.476;2023-12-07T05:08:33;0.99;98.82
49489;SHT31;35382;51.484;11.476;2023-12-07T05:10:58;1.09;98.79
49489;SHT31;35382;51.484;11.476;2023-12-07T05:13:24;0.98;98.60
49489;SHT31;35382;51.484;11.476;2023-12-07T05:15:49;0.98;98.71
49489;SHT31;35382;51.484;11.476;2023-12-07T05:18:15;1.04;98.75
49489;SHT31;35382;51.484;11.476;2023-12-07T05:20:40;1.01;98.57
49489;SHT31;35382;51.484;11.476;2023-12-07T05:23:05;0.98;98.65
49489;SHT31;35382;51.484;11.476;2023-12-07T05:25:31;1.17;98.62
49489;SHT31;35382;51.484;11.476;2023-12-07T05:27:57;0.98;98.51
49489;SHT31;35382;51.484;11.476;2023-12-07T05:30:22;1.07;98.60
49489;SHT31;35382;51.484;11.476;2023-12-07T05:32:48;1.01;98.65
49489;SHT31;35382;51.484;11.476;2023-12-07T05:35:13;0.98;98.62
49489;SHT31;35382;51.484;11.476;2023-12-07T05:37:39;1.04;98.57
49489;SHT31;35382;51.484;11.476;2023-12-07T05:40:04;0.95;98.53
49489;SHT31;35382;51.484;11.476;2023-12-07T05:42:30;1.19;98.34
49489;SHT31;35382;51.484;11.476;2023-12-07T05:44:55;1.11;98.22
49489;SHT31;35382;51.484;11.476;2023-12-07T05:47:21;1.05;98.28
49489;SHT31;35382;51.484;11.476;2023-12-07T05:49:46;0.98;98.39
49489;SHT31;35382;51.484;11.476;2023-12-07T05:52:12;0.92;98.55
49489;SHT31;35382;51.484;11.476;2023-12-07T05:54:39;0.94;98.61
49489;SHT31;35382;51.484;11.476;2023-12-07T05:57:04;0.92;98.47
49489;SHT31;35382;51.484;11.476;2023-12-07T05:59:29;0.89;98.55
49489;SHT31;35382;51.484;11.476;2023-12-07T06:01:55;0.89;98.69
49489;SHT31;35382;51.484;11.476;2023-12-07T06:04:20;0.89;98.79
49489;SHT31;35382;51.484;11.476;2023-12-07T06:06:46;0.92;98.81
49489;SHT31;35382;51.484;11.476;2023-12-07T06:09:11;0.95;98.68
49489;SHT31;35382;51.484;11.476;2023-12-07T06:11:36;0.91;98.72
49489;SHT31;35382;51.484;11.476;2023-12-07T06:14:02;0.97;98.79
49489;SHT31;35382;51.484;11.476;2023-12-07T06:16:28;1.07;98.69
49489;SHT31;35382;51.484;11.476;2023-12-07T06:18:53;0.99;98.49
49489;SHT31;35382;51.484;11.476;2023-12-07T06:21:18;0.99;98.49
49489;SHT31;35382;51.484;11.476;2023-12-07T06:23:44;0.92;98.43
49489;SHT31;35382;51.484;11.476;2023-12-07T06:26:09;0.95;98.43
49489;SHT31;35382;51.484;11.476;2023-12-07T06:28:34;0.91;98.46
49489;SHT31;35382;51.484;11.476;2023-12-07T06:31:04;0.94;98.50
49489;SHT31;35382;51.484;11.476;2023-12-07T06:33:30;0.88;98.48
49489;SHT31;35382;51.484;11.476;2023-12-07T06:35:55;0.92;98.52
49489;SHT31;35382;51.484;11.476;2023-12-07T06:38:21;0.99;98.52
49489;SHT31;35382;51.484;11.476;2023-12-07T06:40:46;1.02;98.36
49489;SHT31;35382;51.484;11.476;2023-12-07T06:43:11;0.97;98.23
49489;SHT31;35382;51.484;11.476;2023-12-07T06:45:37;0.94;98.27
49489;SHT31;35382;51.484;11.476;2023-12-07T06:48:03;0.94;98.31
49489;SHT31;35382;51.484;11.476;2023-12-07T06:50:29;0.84;98.42
49489;SHT31;35382;51.484;11.476;2023-12-07T06:52:54;0.89;98.64
49489;SHT31;35382;51.484;11.476;2023-12-07T06:55:22;0.95;98.57
49489;SHT31;35382;51.484;11.476;2023-12-07T06:57:48;0.83;98.38
49489;SHT31;35382;51.484;11.476;2023-12-07T07:00:13;0.92;98.41
49489;SHT31;35382;51.484;11.476;2023-12-07T07:02:39;0.88;98.43
49489;SHT31;35382;51.484;11.476;2023-12-07T07:05:05;0.92;98.37
49489;SHT31;35382;51.484;11.476;2023-12-07T07:07:30;1.07;98.17
49489;SHT31;35382;51.484;11.476;2023-12-07T07:09:56;0.97;98.08
49489;SHT31;35382;51.484;11.476;2023-12-07T07:12:21;1.09;98.12
49489;SHT31;35382;51.484;11.476;2023-12-07T07:14:47;1.21;97.87
49489;SHT31;35382;51.484;11.476;2023-12-07T07:17:14;0.91;97.71
49489;SHT31;35382;51.484;11.476;2023-12-07T07:19:40;0.91;98.08
49489;SHT31;35382;51.484;11.476;2023-12-07T07:22:05;0.85;98.24
49489;SHT31;35382;51.484;11.476;2023-12-07T07:24:31;0.85;98.26
49489;SHT31;35382;51.484;11.476;2023-12-07T07:26:56;0.89;98.15
49489;SHT31;35382;51.484;11.476;2023-12-07T07:29:21;0.88;98.22
49489;SHT31;35382;51.484;11.476;2023-12-07T07:31:47;0.94;98.24
49489;SHT31;35382;51.484;11.476;2023-12-07T07:34:12;1.01;98.14
49489;SHT31;35382;51.484;11.476;2023-12-07T07:36:37;0.99;97.85
49489;SHT31;35382;51.484;11.476;2023-12-07T07:39:03;1.02;97.75
49489;SHT31;35382;51.484;11.476;2023-12-07T07:41:28;0.97;97.78
49489;SHT31;35382;51.484;11.476;2023-12-07T07:43:53;0.95;97.95
49489;SHT31;35382;51.484;11.476;2023-12-07T07:46:19;0.89;98.05
49489;SHT31;35382;51.484;11.476;2023-12-07T07:48:44;0.92;98.15
49489;SHT31;35382;51.484;11.476;2023-12-07T07:51:10;0.97;98.11
49489;SHT31;35382;51.484;11.476;2023-12-07T07:53:35;1.02;97.93
49489;SHT31;35382;51.484;11.476;2023-12-07T07:56:00;1.08;97.78
49489;SHT31;35382;51.484;11.476;2023-12-07T07:58:26;1.04;97.52
49489;SHT31;35382;51.484;11.476;2023-12-07T08:00:52;1.05;97.56
49489;SHT31;35382;51.484;11.476;2023-12-07T08:03:17;1.07;97.37
49489;SHT31;35382;51.484;11.476;2023-12-07T08:05:42;1.09;97.40
49489;SHT31;35382;51.484;11.476;2023-12-07T08:08:08;1.17;97.27
49489;SHT31;35382;51.484;11.476;2023-12-07T08:10:33;1.12;96.94
49489;SHT31;35382;51.484;11.476;2023-12-07T08:12:59;1.19;96.84
49489;SHT31;35382;51.484;11.476;2023-12-07T08:15:25;1.15;96.79
49489;SHT31;35382;51.484;11.476;2023-12-07T08:17:51;1.19;96.92
49489;SHT31;35382;51.484;11.476;2023-12-07T08:20:17;1.25;96.92
49489;SHT31;35382;51.484;11.476;2023-12-07T08:22:43;1.27;96.80
49489;SHT31;35382;51.484;11.476;2023-12-07T08:25:10;1.29;96.86
49489;SHT31;35382;51.484;11.476;2023-12-07T08:27:38;1.32;96.89
49489;SHT31;35382;51.484;11.476;2023-12-07T08:30:06;1.31;96.87
49489;SHT31;35382;51.484;11.476;2023-12-07T08:32:31;1.36;96.56
49489;SHT31;35382;51.484;11.476;2023-12-07T08:34:57;1.39;96.44
49489;SHT31;35382;51.484;11.476;2023-12-07T08:37:23;1.51;96.33
49489;SHT31;35382;51.484;11.476;2023-12-07T08:39:48;1.66;96.05
49489;SHT31;35382;51.484;11.476;2023-12-07T08:42:14;1.66;95.76
49489;SHT31;35382;51.484;11.476;2023-12-07T08:44:39;1.70;95.84
49489;SHT31;35382;51.484;11.476;2023-12-07T08:47:05;1.73;95.70
49489;SHT31;35382;51.484;11.476;2023-12-07T08:49:31;1.76;95.58
49489;SHT31;35382;51.484;11.476;2023-12-07T08:51:57;1.82;95.38
49489;SHT31;35382;51.484;11.476;2023-12-07T08:54:22;1.79;94.97
49489;SHT31;35382;51.484;11.476;2023-12-07T08:56:48;1.92;94.61
49489;SHT31;35382;51.484;11.476;2023-12-07T08:59:13;1.99;94.38
49489;SHT31;35382;51.484;11.476;2023-12-07T09:01:39;2.02;94.47
49489;SHT31;35382;51.484;11.476;2023-12-07T09:04:04;2.00;94.69
49489;SHT31;35382;51.484;11.476;2023-12-07T09:06:29;2.17;94.20
49489;SHT31;35382;51.484;11.476;2023-12-07T09:08:55;2.17;93.91
49489;SHT31;35382;51.484;11.476;2023-12-07T09:11:21;2.07;94.07
49489;SHT31;35382;51.484;11.476;2023-12-07T09:13:46;2.05;94.17
49489;SHT31;35382;51.484;11.476;2023-12-07T09:16:12;2.06;93.63
49489;SHT31;35382;51.484;11.476;2023-12-07T09:18:37;2.06;93.48
49489;SHT31;35382;51.484;11.476;2023-12-07T09:21:03;1.93;94.24
49489;SHT31;35382;51.484;11.476;2023-12-07T09:23:31;1.92;94.31
49489;SHT31;35382;51.484;11.476;2023-12-07T09:25:57;1.87;94.76
49489;SHT31;35382;51.484;11.476;2023-12-07T09:28:22;1.76;94.76
49489;SHT31;35382;51.484;11.476;2023-12-07T09:30:47;1.73;95.09
49489;SHT31;35382;51.484;11.476;2023-12-07T09:33:13;1.82;95.15
49489;SHT31;35382;51.484;11.476;2023-12-07T09:35:38;1.80;94.87
49489;SHT31;35382;51.484;11.476;2023-12-07T09:38:05;2.09;94.95
49489;SHT31;35382;51.484;11.476;2023-12-07T09:40:30;2.02;94.32
49489;SHT31;35382;51.484;11.476;2023-12-07T09:42:55;2.07;94.16
49489;SHT31;35382;51.484;11.476;2023-12-07T09:45:22;2.07;93.99
49489;SHT31;35382;51.484;11.476;2023-12-07T09:47:52;2.10;94.10
49489;SHT31;35382;51.484;11.476;2023-12-07T09:50:22;2.14;93.83
49489;SHT31;35382;51.484;11.476;2023-12-07T09:52:52;2.06;93.65
49489;SHT31;35382;51.484;11.476;2023-12-07T09:55:18;2.07;93.72
49489;SHT31;35382;51.484;11.476;2023-12-07T09:57:45;2.07;94.00
49489;SHT31;35382;51.484;11.476;2023-12-07T10:00:12;2.06;93.87
49489;SHT31;35382;51.484;11.476;2023-12-07T10:02:37;2.19;93.67
49489;SHT31;35382;51.484;11.476;2023-12-07T10:05:07;2.31;93.24
49489;SHT31;35382;51.484;11.476;2023-12-07T10:07:39;2.43;93.00
49489;SHT31;35382;51.484;11.476;2023-12-07T10:10:05;2.37;92.98
49489;SHT31;35382;51.484;11.476;2023-12-07T10:12:31;2.53;92.95
49489;SHT31;35382;51.484;11.476;2023-12-07T10:14:57;2.55;92.91
49489;SHT31;35382;51.484;11.476;2023-12-07T10:17:22;2.57;92.83
49489;SHT31;35382;51.484;11.476;2023-12-07T10:20:07;2.61;92.63
49489;SHT31;35382;51.484;11.476;2023-12-07T10:22:33;2.62;92.66
49489;SHT31;35382;51.484;11.476;2023-12-07T10:24:58;2.74;92.82
49489;SHT31;35382;51.484;11.476;2023-12-07T10:27:24;2.84;92.17
49489;SHT31;35382;51.484;11.476;2023-12-07T10:29:49;2.94;92.04
49489;SHT31;35382;51.484;11.476;2023-12-07T10:32:14;3.16;91.73
49489;SHT31;35382;51.484;11.476;2023-12-07T10:34:40;3.13;91.44
49489;SHT31;35382;51.484;11.476;2023-12-07T10:37:05;3.15;91.40
49489;SHT31;35382;51.484;11.476;2023-12-07T10:39:31;3.09;91.18
49489;SHT31;35382;51.484;11.476;2023-12-07T10:42:01;3.08;91.18
49489;SHT31;35382;51.484;11.476;2023-12-07T10:44:28;3.02;91.43
49489;SHT31;35382;51.484;11.476;2023-12-07T10:46:54;2.89;91.67
49489;SHT31;35382;51.484;11.476;2023-12-07T10:49:21;2.77;91.97
49489;SHT31;35382;51.484;11.476;2023-12-07T10:52:03;2.74;92.23
49489;SHT31;35382;51.484;11.476;2023-12-07T10:54:37;2.80;91.90
49489;SHT31;35382;51.484;11.476;2023-12-07T10:57:05;2.77;91.81
49489;SHT31;35382;51.484;11.476;2023-12-07T10:59:32;2.75;91.73
49489;SHT31;35382;51.484;11.476;2023-12-07T11:02:01;2.71;91.71
49489;SHT31;35382;51.484;11.476;2023-12-07T11:04:27;2.71;91.68
49489;SHT31;35382;51.484;11.476;2023-12-07T11:06:54;2.83;91.57
49489;SHT31;35382;51.484;11.476;2023-12-07T11:09:25;2.99;90.92
49489;SHT31;35382;51.484;11.476;2023-12-07T11:12:00;3.15;90.75
49489;SHT31;35382;51.484;11.476;2023-12-07T11:14:28;3.45;89.68
49489;SHT31;35382;51.484;11.476;2023-12-07T11:16:53;3.62;88.99
49489;SHT31;35382;51.484;11.476;2023-12-07T11:21:56;3.28;89.61
49489;SHT31;35382;51.484;11.476;2023-12-07T11:24:25;3.15;89.78
49489;SHT31;35382;51.484;11.476;2023-12-07T11:26:57;3.26;89.63
49489;SHT31;35382;51.484;11.476;2023-12-07T11:29:28;3.11;89.73
49489;SHT31;35382;51.484;11.476;2023-12-07T11:32:05;3.05;89.88
49489;SHT31;35382;51.484;11.476;2023-12-07T11:34:38;3.01;90.13
49489;SHT31;35382;51.484;11.476;2023-12-07T11:37:06;2.97;90.24
49489;SHT31;35382;51.484;11.476;2023-12-07T11:39:42;2.99;90.05
49489;SHT31;35382;51.484;11.476;2023-12-07T11:42:17;2.89;90.04
49489;SHT31;35382;51.484;11.476;2023-12-07T11:44:44;2.94;90.15
49489;SHT31;35382;51.484;11.476;2023-12-07T11:47:19;3.01;90.44
49489;SHT31;35382;51.484;11.476;2023-12-07T11:49:45;2.97;90.85
49489;SHT31;35382;51.484;11.476;2023-12-07T11:52:20;3.11;91.02
49489;SHT31;35382;51.484;11.476;2023-12-07T11:54:46;3.04;90.42
49489;SHT31;35382;51.484;11.476;2023-12-07T11:57:16;3.15;90.31
49489;SHT31;35382;51.484;11.476;2023-12-07T11:59:44;3.21;90.36
49489;SHT31;35382;51.484;11.476;2023-12-07T12:02:13;3.23;90.06
49489;SHT31;35382;51.484;11.476;2023-12-07T12:04:40;3.32;90.17
49489;SHT31;35382;51.484;11.476;2023-12-07T12:07:05;3.25;90.02
49489;SHT31;35382;51.484;11.476;2023-12-07T12:09:31;3.36;89.90
49489;SHT31;35382;51.484;11.476;2023-12-07T12:11:56;3.39;89.53
49489;SHT31;35382;51.484;11.476;2023-12-07T12:14:22;3.53;89.32
49489;SHT31;35382;51.484;11.476;2023-12-07T12:16:48;3.62;89.63
49489;SHT31;35382;51.484;11.476;2023-12-07T12:19:14;3.56;88.76
49489;SHT31;35382;51.484;11.476;2023-12-07T12:21:40;3.60;88.89
49489;SHT31;35382;51.484;11.476;2023-12-07T12:24:05;3.59;88.53
49489;SHT31;35382;51.484;11.476;2023-12-07T12:26:35;3.59;87.96
49489;SHT31;35382;51.484;11.476;2023-12-07T12:29:02;3.72;88.50
49489;SHT31;35382;51.484;11.476;2023-12-07T12:31:28;3.56;84.98
49489;SHT31;35382;51.484;11.476;2023-12-07T12:33:54;3.55;83.81
49489;SHT31;35382;51.484;11.476;2023-12-07T12:36:20;3.40;84.72
49489;SHT31;35382;51.484;11.476;2023-12-07T12:38:47;3.49;83.47
49489;SHT31;35382;51.484;11.476;2023-12-07T12:41:20;3.36;85.06
49489;SHT31;35382;51.484;11.476;2023-12-07T12:43:46;2.89;86.87
49489;SHT31;35382;51.484;11.476;2023-12-07T12:46:15;2.53;88.18
49489;SHT31;35382;51.484;11.476;2023-12-07T12:49:00;2.27;89.05
49489;SHT31;35382;51.484;11.476;2023-12-07T12:51:27;2.14;89.35
49489;SHT31;35382;51.484;11.476;2023-12-07T12:53:55;2.03;90.23
49489;SHT31;35382;51.484;11.476;2023-12-07T12:56:22;1.95;90.59
49489;SHT31;35382;51.484;11.476;2023-12-07T12:58:49;1.95;91.50
49489;SHT31;35382;51.484;11.476;2023-12-07T13:01:18;1.85;91.61
49489;SHT31;35382;51.484;11.476;2023-12-07T13:03:44;1.75;91.99
49489;SHT31;35382;51.484;11.476;2023-12-07T13:06:09;1.70;91.69
49489;SHT31;35382;51.484;11.476;2023-12-07T13:08:35;1.55;91.82
49489;SHT31;35382;51.484;11.476;2023-12-07T13:11:00;1.48;92.21
49489;SHT31;35382;51.484;11.476;2023-12-07T13:13:26;1.36;92.66
49489;SHT31;35382;51.484;11.476;2023-12-07T13:15:51;1.39;93.24
49489;SHT31;35382;51.484;11.476;2023-12-07T13:18:16;1.38;93.32
49489;SHT31;35382;51.484;11.476;2023-12-07T13:20:42;1.39;93.32
49489;SHT31;35382;51.484;11.476;2023-12-07T13:23:07;1.39;93.33
49489;SHT31;35382;51.484;11.476;2023-12-07T13:25:32;1.39;93.28
49489;SHT31;35382;51.484;11.476;2023-12-07T13:27:58;1.24;93.13
49489;SHT31;35382;51.484;11.476;2023-12-07T13:30:23;1.05;93.48
49489;SHT31;35382;51.484;11.476;2023-12-07T13:32:49;0.94;93.57
49489;SHT31;35382;51.484;11.476;2023-12-07T13:35:14;0.75;93.78
49489;SHT31;35382;51.484;11.476;2023-12-07T13:37:40;0.68;94.18
49489;SHT31;35382;51.484;11.476;2023-12-07T13:40:06;0.58;94.24
49489;SHT31;35382;51.484;11.476;2023-12-07T13:42:31;0.58;94.67
49489;SHT31;35382;51.484;11.476;2023-12-07T13:44:58;0.57;94.89
49489;SHT31;35382;51.484;11.476;2023-12-07T13:47:24;0.56;95.05
49489;SHT31;35382;51.484;11.476;2023-12-07T13:49:49;0.37;94.58
49489;SHT31;35382;51.484;11.476;2023-12-07T13:52:15;-0.04;93.49
49489;SHT31;35382;51.484;11.476;2023-12-07T13:54:40;-0.11;94.82
49489;SHT31;35382;51.484;11.476;2023-12-07T13:57:06;-0.24;95.10
49489;SHT31;35382;51.484;11.476;2023-12-07T13:59:31;-0.37;95.09
49489;SHT31;35382;51.484;11.476;2023-12-07T14:01:56;-0.34;95.53
49489;SHT31;35382;51.484;11.476;2023-12-07T14:04:22;-0.39;95.95
49489;SHT31;35382;51.484;11.476;2023-12-07T14:06:47;-0.42;96.37
49489;SHT31;35382;51.484;11.476;2023-12-07T14:09:12;-0.39;96.78
49489;SHT31;35382;51.484;11.476;2023-12-07T14:11:38;-0.47;96.49
49489;SHT31;35382;51.484;11.476;2023-12-07T14:14:03;-0.49;96.38
49489;SHT31;35382;51.484;11.476;2023-12-07T14:16:29;-0.45;96.45
49489;SHT31;35382;51.484;11.476;2023-12-07T14:18:54;-0.28;96.57
49489;SHT31;35382;51.484;11.476;2023-12-07T14:21:20;-0.24;96.25
49489;SHT31;35382;51.484;11.476;2023-12-07T14:23:45;-0.25;96.31
49489;SHT31;35382;51.484;11.476;2023-12-07T14:26:11;-0.19;96.58
49489;SHT31;35382;51.484;11.476;2023-12-07T14:28:36;-0.15;96.70
49489;SHT31;35382;51.484;11.476;2023-12-07T14:31:04;-0.10;96.75
49489;SHT31;35382;51.484;11.476;2023-12-07T14:33:29;-0.05;96.45
49489;SHT31;35382;51.484;11.476;2023-12-07T14:35:55;-0.13;96.25
49489;SHT31;35382;51.484;11.476;2023-12-07T14:38:20;-0.14;96.56
49489;SHT31;35382;51.484;11.476;2023-12-07T14:40:45;-0.08;96.43
49489;SHT31;35382;51.484;11.476;2023-12-07T14:43:11;-0.13;96.54
49489;SHT31;35382;51.484;11.476;2023-12-07T14:45:36;-0.19;96.56
49489;SHT31;35382;51.484;11.476;2023-12-07T14:48:02;-0.14;96.78
49489;SHT31;35382;51.484;11.476;2023-12-07T14:50:28;-0.04;96.66
49489;SHT31;35382;51.484;11.476;2023-12-07T14:52:53;-0.08;96.66
49489;SHT31;35382;51.484;11.476;2023-12-07T14:55:18;-0.14;96.45
49489;SHT31;35382;51.484;11.476;2023-12-07T14:57:44;-0.21;96.78
49489;SHT31;35382;51.484;11.476;2023-12-07T15:00:11;-0.11;96.70
49489;SHT31;35382;51.484;11.476;2023-12-07T15:02:36;-0.07;96.47
49489;SHT31;35382;51.484;11.476;2023-12-07T15:05:02;-0.07;96.69
49489;SHT31;35382;51.484;11.476;2023-12-07T15:07:27;-0.04;97.09
49489;SHT31;35382;51.484;11.476;2023-12-07T15:09:53;0.00;97.19
49489;SHT31;35382;51.484;11.476;2023-12-07T15:12:18;0.00;97.22
49489;SHT31;35382;51.484;11.476;2023-12-07T15:14:43;-0.10;96.98
49489;SHT31;35382;51.484;11.476;2023-12-07T15:17:09;-0.24;97.25
49489;SHT31;35382;51.484;11.476;2023-12-07T15:19:34;-0.18;97.40
49489;SHT31;35382;51.484;11.476;2023-12-07T15:21:59;-0.19;97.59
49489;SHT31;35382;51.484;11.476;2023-12-07T15:24:25;-0.18;97.73
49489;SHT31;35382;51.484;11.476;2023-12-07T15:26:50;-0.08;97.82
49489;SHT31;35382;51.484;11.476;2023-12-07T15:29:16;0.00;97.75